KBFI/BFI METAR and TAF weather

Enter ICAO airport designator
Station Type Date Time Source
KBFI METAR 2019/10/21 22:53 UTC NOAA

KBFI 212253Z 17008KT 6SM -RA BR SCT012 OVC018 13/12 A3012 RMK AO2 RAB2158E10B13E19B50 SLP199 P0000 T01330117


Station Type Date Time Source
KBFI Decoded METAR 2019/10/21 22:53 UTC NOAA

SEATTLE BOEING FIELD, WA, United States (KBFI) 47-33N 122-19W 4M
Oct 21, 2019 - 06:53 PM EDT / 2019.10.21 2253 UTC
Wind: from the S (170 degrees) at 9 MPH (8 KT):0
Visibility: 6 mile(s):0
Sky conditions: overcast
Weather: light rain; mist
Precipitation last hour: A trace
Temperature: 55.9 F (13.3 C)
Dew Point: 53.1 F (11.7 C)
Relative Humidity: 90%
Pressure (altimeter): 30.12 in. Hg (1019 hPa)
ob: KBFI 212253Z 17008KT 6SM -RA BR SCT012 OVC018 13/12 A3012 RMK AO2 RAB2158E10B13E19B50 SLP199 P0000 T01330117
cycle: 23

Station Type Date Time Source
KBFI TAF 2019/10/21 21:06 UTC NOAA

TAF
AMD KBFI 212105Z 2121/2218 15010KT 6SM -RA BR SCT012 OVC025
TEMPO 2121/2124 BKN012
FM220000 16009KT 5SM RA BR OVC015
FM220500 16012KT 5SM -RA BR OVC012
FM221200 19008KT P6SM -SHRA OVC015

Example: see airport list